Terminal Aerodrome Forecast
Issued by NWS Caribou, ME

Home | Current Version | Previous Version | Text Only | Print | Product List | Glossary On
Versions: 1 2 3 4 5 6 7 8 9 10 11 12 13 14 15
116
FTUS41 KCAR 222323
TAFBGR
TAF
KBGR 222323Z 2300/2324 19008KT 4SM -SHRA BKN025
     FM230200 18007KT 5SM BR OVC004
     FM231300 23004KT P6SM SCT007 OVC010
     FM231600 24008KT P6SM SCT050=

USA.gov is the U.S. government's official web portal to all federal, state and local government web resources and services.